sensor_id;sensor_type;location;lat;lon;timestamp;pressure;altitude;pressure_sealevel;temperature;humidity
10392;BME280;5242;49.244;6.774;2023-04-12T00:03:56;98926.31;;;8.00;nan
10392;BME280;5242;49.244;6.774;2023-04-12T00:11:48;98903.41;;;7.97;nan
10392;BME280;5242;49.244;6.774;2023-04-12T00:19:40;98893.28;;;7.94;nan
10392;BME280;5242;49.244;6.774;2023-04-12T00:27:35;98872.38;;;7.95;nan
10392;BME280;5242;49.244;6.774;2023-04-12T00:35:27;98848.66;;;7.92;nan
10392;BME280;5242;49.244;6.774;2023-04-12T00:43:19;98841.94;;;7.86;nan
10392;BME280;5242;49.244;6.774;2023-04-12T00:51:11;98840.28;;;7.81;nan
10392;BME280;5242;49.244;6.774;2023-04-12T00:59:03;98819.31;;;7.78;nan
10392;BME280;5242;49.244;6.774;2023-04-12T01:31:04;98751.03;;;7.72;nan
10392;BME280;5242;49.244;6.774;2023-04-12T01:38:58;98733.41;;;7.62;nan
10392;BME280;5242;49.244;6.774;2023-04-12T01:46:51;98706.13;;;7.55;nan
10392;BME280;5242;49.244;6.774;2023-04-12T01:54:48;98686.22;;;7.48;nan
10392;BME280;5242;49.244;6.774;2023-04-12T02:02:41;98656.69;;;7.43;nan
10392;BME280;5242;49.244;6.774;2023-04-12T02:10:34;98625.69;;;7.40;nan
10392;BME280;5242;49.244;6.774;2023-04-12T02:18:27;98604.72;;;7.37;nan
10392;BME280;5242;49.244;6.774;2023-04-12T02:26:19;98577.22;;;7.35;nan
10392;BME280;5242;49.244;6.774;2023-04-12T02:34:13;98553.16;;;7.33;nan
10392;BME280;5242;49.244;6.774;2023-04-12T02:42:08;98532.94;;;7.27;nan
10392;BME280;5242;49.244;6.774;2023-04-12T02:50:00;98519.34;;;7.24;nan
10392;BME280;5242;49.244;6.774;2023-04-12T02:57:53;98494.59;;;7.25;nan
10392;BME280;5242;49.244;6.774;2023-04-12T03:05:45;98482.97;;;7.25;nan
10392;BME280;5242;49.244;6.774;2023-04-12T03:13:37;98460.53;;;7.24;nan
10392;BME280;5242;49.244;6.774;2023-04-12T03:21:29;98450.81;;;7.23;nan
10392;BME280;5242;49.244;6.774;2023-04-12T03:29:21;98441.59;;;7.24;nan
10392;BME280;5242;49.244;6.774;2023-04-12T03:37:13;98433.50;;;7.28;nan
10392;BME280;5242;49.244;6.774;2023-04-12T03:45:05;98431.53;;;7.25;nan
10392;BME280;5242;49.244;6.774;2023-04-12T03:52:58;98394.47;;;7.29;nan
10392;BME280;5242;49.244;6.774;2023-04-12T04:00:50;98368.47;;;7.24;nan
10392;BME280;5242;49.244;6.774;2023-04-12T04:08:42;98366.97;;;7.27;nan
10392;BME280;5242;49.244;6.774;2023-04-12T04:16:35;98350.63;;;7.23;nan
10392;BME280;5242;49.244;6.774;2023-04-12T04:24:27;98341.88;;;7.30;nan
10392;BME280;5242;49.244;6.774;2023-04-12T04:32:19;98324.53;;;7.34;nan
10392;BME280;5242;49.244;6.774;2023-04-12T04:40:11;98300.59;;;7.36;nan
10392;BME280;5242;49.244;6.774;2023-04-12T04:48:03;98276.25;;;7.40;nan
10392;BME280;5242;49.244;6.774;2023-04-12T04:55:58;98270.53;;;7.45;nan
10392;BME280;5242;49.244;6.774;2023-04-12T05:03:51;98248.38;;;7.62;nan
10392;BME280;5242;49.244;6.774;2023-04-12T05:11:43;98235.84;;;7.81;nan
10392;BME280;5242;49.244;6.774;2023-04-12T05:19:35;98210.41;;;7.89;nan
10392;BME280;5242;49.244;6.774;2023-04-12T05:27:28;98210.06;;;7.94;nan
10392;BME280;5242;49.244;6.774;2023-04-12T05:35:20;98193.91;;;8.01;nan
10392;BME280;5242;49.244;6.774;2023-04-12T05:43:12;98183.91;;;8.09;nan
10392;BME280;5242;49.244;6.774;2023-04-12T05:51:04;98177.81;;;8.16;nan
10392;BME280;5242;49.244;6.774;2023-04-12T05:58:56;98171.59;;;8.15;nan
10392;BME280;5242;49.244;6.774;2023-04-12T06:06:49;98166.22;;;8.19;nan
10392;BME280;5242;49.244;6.774;2023-04-12T06:14:40;98148.44;;;8.25;nan
10392;BME280;5242;49.244;6.774;2023-04-12T06:22:32;98133.41;;;8.31;nan
10392;BME280;5242;49.244;6.774;2023-04-12T06:30:24;98129.31;;;8.44;nan
10392;BME280;5242;49.244;6.774;2023-04-12T06:38:17;98115.09;;;8.58;nan
10392;BME280;5242;49.244;6.774;2023-04-12T06:46:09;98102.09;;;8.78;nan
10392;BME280;5242;49.244;6.774;2023-04-12T06:54:01;98102.56;;;8.91;nan
10392;BME280;5242;49.244;6.774;2023-04-12T07:01:53;98091.34;;;8.92;nan
10392;BME280;5242;49.244;6.774;2023-04-12T07:09:45;98068.50;;;9.01;nan
10392;BME280;5242;49.244;6.774;2023-04-12T07:17:38;98053.44;;;9.10;nan
10392;BME280;5242;49.244;6.774;2023-04-12T07:25:30;98063.56;;;9.17;nan
10392;BME280;5242;49.244;6.774;2023-04-12T07:33:24;98053.09;;;9.23;nan
10392;BME280;5242;49.244;6.774;2023-04-12T07:41:16;98055.44;;;9.28;nan
10392;BME280;5242;49.244;6.774;2023-04-12T07:49:09;98036.88;;;9.41;nan
10392;BME280;5242;49.244;6.774;2023-04-12T07:57:02;98035.03;;;9.59;nan
10392;BME280;5242;49.244;6.774;2023-04-12T08:04:54;98030.81;;;9.76;nan
10392;BME280;5242;49.244;6.774;2023-04-12T08:12:46;98026.19;;;9.91;nan
10392;BME280;5242;49.244;6.774;2023-04-12T08:20:38;98026.59;;;10.04;nan
10392;BME280;5242;49.244;6.774;2023-04-12T08:28:34;98020.03;;;10.15;nan
10392;BME280;5242;49.244;6.774;2023-04-12T08:36:28;98022.34;;;10.20;nan
10392;BME280;5242;49.244;6.774;2023-04-12T08:44:32;98019.66;;;10.28;nan
10392;BME280;5242;49.244;6.774;2023-04-12T08:52:24;98006.84;;;10.46;nan
10392;BME280;5242;49.244;6.774;2023-04-12T09:00:17;98002.94;;;10.58;nan
10392;BME280;5242;49.244;6.774;2023-04-12T09:08:11;98005.28;;;10.59;nan
10392;BME280;5242;49.244;6.774;2023-04-12T09:16:03;97995.94;;;10.60;nan
10392;BME280;5242;49.244;6.774;2023-04-12T09:24:05;97974.94;;;10.64;nan
10392;BME280;5242;49.244;6.774;2023-04-12T09:32:07;97973.41;;;10.63;nan
10392;BME280;5242;49.244;6.774;2023-04-12T09:40:01;97974.13;;;10.75;nan
10392;BME280;5242;49.244;6.774;2023-04-12T09:47:54;97964.38;;;10.95;nan
10392;BME280;5242;49.244;6.774;2023-04-12T09:55:48;97965.78;;;11.32;nan
10392;BME280;5242;49.244;6.774;2023-04-12T10:03:41;97955.16;;;11.56;nan
10392;BME280;5242;49.244;6.774;2023-04-12T10:11:33;97957.25;;;12.00;nan
10392;BME280;5242;49.244;6.774;2023-04-12T10:19:27;97931.88;;;12.07;nan
10392;BME280;5242;49.244;6.774;2023-04-12T10:27:26;97932.34;;;11.94;nan
10392;BME280;5242;49.244;6.774;2023-04-12T10:35:18;97929.28;;;11.89;nan
10392;BME280;5242;49.244;6.774;2023-04-12T10:51:21;97904.00;;;13.02;nan
10392;BME280;5242;49.244;6.774;2023-04-12T10:59:17;97893.41;;;13.65;nan
10392;BME280;5242;49.244;6.774;2023-04-12T11:07:10;97897.91;;;14.26;nan
10392;BME280;5242;49.244;6.774;2023-04-12T11:15:02;97891.94;;;14.75;nan
10392;BME280;5242;49.244;6.774;2023-04-12T11:22:55;97875.31;;;14.66;nan
10392;BME280;5242;49.244;6.774;2023-04-12T11:30:51;97909.13;;;13.85;nan
10392;BME280;5242;49.244;6.774;2023-04-12T11:38:43;97938.81;;;12.56;nan
10392;BME280;5242;49.244;6.774;2023-04-12T11:46:37;97942.00;;;11.43;nan
10392;BME280;5242;49.244;6.774;2023-04-12T11:54:29;97918.09;;;10.88;nan
10392;BME280;5242;49.244;6.774;2023-04-12T12:02:21;97939.19;;;11.54;nan
10392;BME280;5242;49.244;6.774;2023-04-12T12:10:16;97936.56;;;13.20;nan
10392;BME280;5242;49.244;6.774;2023-04-12T12:18:28;97932.31;;;13.77;nan
10392;BME280;5242;49.244;6.774;2023-04-12T12:26:24;97956.66;;;13.67;nan
10392;BME280;5242;49.244;6.774;2023-04-12T12:34:16;97956.28;;;13.04;nan
10392;BME280;5242;49.244;6.774;2023-04-12T12:42:10;97941.50;;;12.98;nan
10392;BME280;5242;49.244;6.774;2023-04-12T12:50:03;97944.56;;;13.03;nan
10392;BME280;5242;49.244;6.774;2023-04-12T12:57:56;97975.50;;;12.93;nan
10392;BME280;5242;49.244;6.774;2023-04-12T13:05:51;97976.41;;;12.83;nan
10392;BME280;5242;49.244;6.774;2023-04-12T13:13:43;97981.97;;;12.72;nan
10392;BME280;5242;49.244;6.774;2023-04-12T13:21:34;97969.47;;;12.75;nan
10392;BME280;5242;49.244;6.774;2023-04-12T13:29:27;97985.53;;;13.07;nan
10392;BME280;5242;49.244;6.774;2023-04-12T13:37:19;98017.34;;;12.87;nan
10392;BME280;5242;49.244;6.774;2023-04-12T13:45:11;98013.50;;;12.80;nan
10392;BME280;5242;49.244;6.774;2023-04-12T13:53:03;98011.19;;;12.79;nan
10392;BME280;5242;49.244;6.774;2023-04-12T14:00:54;98020.25;;;13.10;nan
10392;BME280;5242;49.244;6.774;2023-04-12T14:08:47;98015.13;;;13.50;nan
10392;BME280;5242;49.244;6.774;2023-04-12T14:16:39;98021.84;;;14.57;nan
10392;BME280;5242;49.244;6.774;2023-04-12T14:24:31;98029.81;;;15.35;nan
10392;BME280;5242;49.244;6.774;2023-04-12T14:32:23;98006.69;;;15.76;nan
10392;BME280;5242;49.244;6.774;2023-04-12T14:40:15;98019.88;;;15.61;nan
10392;BME280;5242;49.244;6.774;2023-04-12T14:48:09;98006.00;;;15.32;nan
10392;BME280;5242;49.244;6.774;2023-04-12T14:56:01;98007.88;;;15.15;nan
10392;BME280;5242;49.244;6.774;2023-04-12T15:03:53;98010.91;;;15.41;nan
10392;BME280;5242;49.244;6.774;2023-04-12T15:11:48;98019.47;;;15.43;nan
10392;BME280;5242;49.244;6.774;2023-04-12T15:19:41;98014.13;;;15.16;nan
10392;BME280;5242;49.244;6.774;2023-04-12T15:27:32;97998.25;;;15.27;nan
10392;BME280;5242;49.244;6.774;2023-04-12T15:35:24;98000.78;;;15.18;nan
10392;BME280;5242;49.244;6.774;2023-04-12T15:43:18;97996.41;;;15.00;nan
10392;BME280;5242;49.244;6.774;2023-04-12T15:51:09;98010.56;;;14.75;nan
10392;BME280;5242;49.244;6.774;2023-04-12T15:59:02;98013.63;;;14.57;nan
10392;BME280;5242;49.244;6.774;2023-04-12T16:06:54;98020.44;;;14.19;nan
10392;BME280;5242;49.244;6.774;2023-04-12T16:14:45;98018.47;;;13.92;nan
10392;BME280;5242;49.244;6.774;2023-04-12T16:22:39;98022.19;;;13.78;nan
10392;BME280;5242;49.244;6.774;2023-04-12T16:30:31;98022.59;;;13.77;nan
10392;BME280;5242;49.244;6.774;2023-04-12T16:38:23;98034.63;;;13.52;nan
10392;BME280;5242;49.244;6.774;2023-04-12T16:46:15;98038.03;;;13.25;nan
10392;BME280;5242;49.244;6.774;2023-04-12T16:54:07;98033.63;;;12.97;nan
10392;BME280;5242;49.244;6.774;2023-04-12T17:01:59;98030.75;;;12.74;nan
10392;BME280;5242;49.244;6.774;2023-04-12T17:09:51;98057.47;;;12.48;nan
10392;BME280;5242;49.244;6.774;2023-04-12T17:18:06;98102.91;;;12.21;nan
10392;BME280;5242;49.244;6.774;2023-04-12T17:26:00;98106.94;;;11.94;nan
10392;BME280;5242;49.244;6.774;2023-04-12T17:33:52;98128.03;;;11.72;nan
10392;BME280;5242;49.244;6.774;2023-04-12T17:41:45;98146.06;;;11.05;nan
10392;BME280;5242;49.244;6.774;2023-04-12T17:49:38;98158.44;;;10.31;nan
10392;BME280;5242;49.244;6.774;2023-04-12T17:57:30;98151.22;;;9.80;nan
10392;BME280;5242;49.244;6.774;2023-04-12T18:05:22;98151.03;;;9.44;nan
10392;BME280;5242;49.244;6.774;2023-04-12T18:13:14;98152.28;;;8.99;nan
10392;BME280;5242;49.244;6.774;2023-04-12T18:21:05;98141.78;;;8.53;nan
10392;BME280;5242;49.244;6.774;2023-04-12T18:28:58;98151.41;;;8.13;nan
10392;BME280;5242;49.244;6.774;2023-04-12T18:36:50;98170.06;;;7.84;nan
10392;BME280;5242;49.244;6.774;2023-04-12T18:44:42;98181.03;;;7.65;nan
10392;BME280;5242;49.244;6.774;2023-04-12T18:52:34;98206.16;;;7.35;nan
10392;BME280;5242;49.244;6.774;2023-04-12T19:00:28;98223.19;;;7.12;nan
10392;BME280;5242;49.244;6.774;2023-04-12T19:08:20;98254.25;;;6.95;nan
10392;BME280;5242;49.244;6.774;2023-04-12T19:16:12;98263.38;;;6.87;nan
10392;BME280;5242;49.244;6.774;2023-04-12T19:24:04;98266.19;;;6.71;nan
10392;BME280;5242;49.244;6.774;2023-04-12T19:31:56;98277.94;;;6.40;nan
10392;BME280;5242;49.244;6.774;2023-04-12T19:39:51;98291.09;;;6.22;nan
10392;BME280;5242;49.244;6.774;2023-04-12T19:47:43;98289.22;;;6.07;nan
10392;BME280;5242;49.244;6.774;2023-04-12T19:55:35;98287.09;;;5.97;nan
10392;BME280;5242;49.244;6.774;2023-04-12T20:03:29;98291.59;;;5.93;nan
10392;BME280;5242;49.244;6.774;2023-04-12T20:11:21;98316.06;;;6.16;nan
10392;BME280;5242;49.244;6.774;2023-04-12T20:19:14;98314.94;;;6.36;nan
10392;BME280;5242;49.244;6.774;2023-04-12T20:27:09;98305.50;;;6.65;nan
10392;BME280;5242;49.244;6.774;2023-04-12T20:35:02;98297.34;;;6.85;nan
10392;BME280;5242;49.244;6.774;2023-04-12T20:42:55;98301.03;;;6.96;nan
10392;BME280;5242;49.244;6.774;2023-04-12T20:50:47;98293.66;;;6.93;nan
10392;BME280;5242;49.244;6.774;2023-04-12T20:58:40;98309.75;;;6.86;nan
10392;BME280;5242;49.244;6.774;2023-04-12T21:06:32;98321.06;;;6.91;nan
10392;BME280;5242;49.244;6.774;2023-04-12T21:14:25;98317.09;;;6.85;nan
10392;BME280;5242;49.244;6.774;2023-04-12T21:22:16;98317.44;;;6.64;nan
10392;BME280;5242;49.244;6.774;2023-04-12T21:30:09;98317.78;;;6.43;nan
10392;BME280;5242;49.244;6.774;2023-04-12T21:38:04;98329.66;;;6.19;nan
10392;BME280;5242;49.244;6.774;2023-04-12T21:45:57;98333.38;;;5.95;nan
10392;BME280;5242;49.244;6.774;2023-04-12T21:53:49;98324.91;;;5.81;nan
10392;BME280;5242;49.244;6.774;2023-04-12T22:01:41;98331.63;;;5.71;nan
10392;BME280;5242;49.244;6.774;2023-04-12T22:09:33;98340.97;;;5.58;nan
10392;BME280;5242;49.244;6.774;2023-04-12T22:17:26;98349.16;;;5.61;nan
10392;BME280;5242;49.244;6.774;2023-04-12T22:25:18;98351.69;;;5.70;nan
10392;BME280;5242;49.244;6.774;2023-04-12T22:33:10;98363.09;;;5.79;nan
10392;BME280;5242;49.244;6.774;2023-04-12T22:41:04;98362.13;;;5.72;nan
10392;BME280;5242;49.244;6.774;2023-04-12T22:48:57;98379.63;;;5.62;nan
10392;BME280;5242;49.244;6.774;2023-04-12T22:56:52;98370.41;;;5.63;nan
10392;BME280;5242;49.244;6.774;2023-04-12T23:04:45;98383.03;;;5.75;nan
10392;BME280;5242;49.244;6.774;2023-04-12T23:12:39;98398.66;;;5.81;nan
10392;BME280;5242;49.244;6.774;2023-04-12T23:20:33;98386.63;;;5.95;nan
10392;BME280;5242;49.244;6.774;2023-04-12T23:28:25;98381.47;;;6.05;nan
10392;BME280;5242;49.244;6.774;2023-04-12T23:36:19;98379.56;;;6.06;nan
10392;BME280;5242;49.244;6.774;2023-04-12T23:44:13;98368.59;;;5.99;nan
10392;BME280;5242;49.244;6.774;2023-04-12T23:52:04;98359.53;;;5.75;nan
10392;BME280;5242;49.244;6.774;2023-04-12T23:59:56;98359.16;;;5.61;nan
